sensor_id;sensor_type;location;lat;lon;timestamp;pressure;altitude;pressure_sealevel;temperature;humidity
74169;BME280;62523;53.336;83.690;2023-06-01T00:01:04;99936.97;;;16.58;80.34
74169;BME280;62523;53.336;83.690;2023-06-01T00:06:06;99942.78;;;16.13;80.86
74169;BME280;62523;53.336;83.690;2023-06-01T00:11:07;99948.53;;;16.20;81.05
74169;BME280;62523;53.336;83.690;2023-06-01T00:16:09;99949.13;;;16.49;80.46
74169;BME280;62523;53.336;83.690;2023-06-01T00:21:11;99957.22;;;16.48;79.39
74169;BME280;62523;53.336;83.690;2023-06-01T00:26:13;99949.25;;;17.22;75.47
74169;BME280;62523;53.336;83.690;2023-06-01T00:31:16;99958.53;;;17.40;75.53
74169;BME280;62523;53.336;83.690;2023-06-01T00:36:19;99961.19;;;17.40;73.49
74169;BME280;62523;53.336;83.690;2023-06-01T00:41:20;99964.59;;;17.18;73.88
74169;BME280;62523;53.336;83.690;2023-06-01T00:46:22;99957.53;;;17.30;73.77
74169;BME280;62523;53.336;83.690;2023-06-01T00:51:24;99969.75;;;16.71;77.80
74169;BME280;62523;53.336;83.690;2023-06-01T00:56:25;99977.75;;;16.58;78.27
74169;BME280;62523;53.336;83.690;2023-06-01T01:01:27;99971.44;;;16.85;79.18
74169;BME280;62523;53.336;83.690;2023-06-01T01:06:49;99978.47;;;17.83;74.90
74169;BME280;62523;53.336;83.690;2023-06-01T01:12:16;99984.03;;;17.07;76.58
74169;BME280;62523;53.336;83.690;2023-06-01T01:17:29;99975.34;;;17.65;75.38
74169;BME280;62523;53.336;83.690;2023-06-01T01:33:29;99969.19;;;20.40;58.45
74169;BME280;62523;53.336;83.690;2023-06-01T01:38:34;99977.75;;;18.83;62.25
74169;BME280;62523;53.336;83.690;2023-06-01T01:43:37;99975.31;;;18.92;60.95
74169;BME280;62523;53.336;83.690;2023-06-01T01:54:12;99966.91;;;18.96;61.62
74169;BME280;62523;53.336;83.690;2023-06-01T01:59:15;99963.63;;;19.80;58.71
74169;BME280;62523;53.336;83.690;2023-06-01T02:04:17;99970.09;;;19.66;58.13
74169;BME280;62523;53.336;83.690;2023-06-01T02:09:19;99962.22;;;19.64;58.97
74169;BME280;62523;53.336;83.690;2023-06-01T02:14:21;99960.22;;;19.78;58.78
74169;BME280;62523;53.336;83.690;2023-06-01T02:19:23;99975.16;;;18.71;60.58
74169;BME280;62523;53.336;83.690;2023-06-01T02:24:25;99974.28;;;18.03;62.30
74169;BME280;62523;53.336;83.690;2023-06-01T02:29:27;99972.75;;;18.45;62.61
74169;BME280;62523;53.336;83.690;2023-06-01T02:34:29;99967.03;;;18.16;61.88
74169;BME280;62523;53.336;83.690;2023-06-01T02:39:32;99971.91;;;18.67;58.98
74169;BME280;62523;53.336;83.690;2023-06-01T02:44:34;99969.59;;;18.62;60.54
74169;BME280;62523;53.336;83.690;2023-06-01T02:49:37;99972.13;;;18.98;59.23
74169;BME280;62523;53.336;83.690;2023-06-01T02:54:39;99965.28;;;19.81;57.12
74169;BME280;62523;53.336;83.690;2023-06-01T03:00:00;99967.94;;;19.28;55.33
74169;BME280;62523;53.336;83.690;2023-06-01T03:05:04;99971.19;;;19.75;55.98
74169;BME280;62523;53.336;83.690;2023-06-01T03:10:08;99975.78;;;19.40;55.47
74169;BME280;62523;53.336;83.690;2023-06-01T03:15:33;99969.00;;;19.36;52.30
74169;BME280;62523;53.336;83.690;2023-06-01T03:20:35;99968.22;;;19.46;48.76
74169;BME280;62523;53.336;83.690;2023-06-01T03:25:36;99975.56;;;19.64;47.68
74169;BME280;62523;53.336;83.690;2023-06-01T03:30:38;99977.03;;;19.57;48.06
74169;BME280;62523;53.336;83.690;2023-06-01T03:35:40;99983.00;;;19.61;45.01
74169;BME280;62523;53.336;83.690;2023-06-01T03:40:42;99974.59;;;19.77;47.26
74169;BME280;62523;53.336;83.690;2023-06-01T03:45:43;99978.88;;;20.10;45.05
74169;BME280;62523;53.336;83.690;2023-06-01T03:50:45;99969.16;;;20.61;44.12
74169;BME280;62523;53.336;83.690;2023-06-01T03:55:47;99961.03;;;20.41;42.70
74169;BME280;62523;53.336;83.690;2023-06-01T04:01:18;99956.53;;;20.42;41.93
74169;BME280;62523;53.336;83.690;2023-06-01T04:06:23;99961.97;;;20.61;42.02
74169;BME280;62523;53.336;83.690;2023-06-01T04:11:25;99954.81;;;21.32;41.60
74169;BME280;62523;53.336;83.690;2023-06-01T04:16:28;99952.13;;;21.32;41.84
74169;BME280;62523;53.336;83.690;2023-06-01T04:21:29;99948.31;;;21.83;39.34
74169;BME280;62523;53.336;83.690;2023-06-01T04:26:31;99951.72;;;21.75;37.93
74169;BME280;62523;53.336;83.690;2023-06-01T04:31:33;99943.81;;;21.44;39.43
74169;BME280;62523;53.336;83.690;2023-06-01T04:36:35;99944.97;;;21.42;38.80
74169;BME280;62523;53.336;83.690;2023-06-01T04:41:41;99932.84;;;21.47;37.82
74169;BME280;62523;53.336;83.690;2023-06-01T04:46:43;99941.81;;;21.95;37.13
74169;BME280;62523;53.336;83.690;2023-06-01T04:51:45;99938.06;;;22.35;36.55
74169;BME280;62523;53.336;83.690;2023-06-01T04:56:47;99927.63;;;21.56;37.54
74169;BME280;62523;53.336;83.690;2023-06-01T05:01:48;99935.69;;;22.13;35.57
74169;BME280;62523;53.336;83.690;2023-06-01T05:06:55;99929.81;;;21.99;35.32
74169;BME280;62523;53.336;83.690;2023-06-01T05:11:56;99919.72;;;22.21;35.70
74169;BME280;62523;53.336;83.690;2023-06-01T05:16:59;99914.59;;;21.80;36.64
74169;BME280;62523;53.336;83.690;2023-06-01T05:22:01;99910.22;;;22.64;35.86
74169;BME280;62523;53.336;83.690;2023-06-01T05:27:03;99917.03;;;22.58;34.90
74169;BME280;62523;53.336;83.690;2023-06-01T05:32:06;99915.25;;;22.02;35.64
74169;BME280;62523;53.336;83.690;2023-06-01T05:37:08;99905.59;;;22.28;34.98
74169;BME280;62523;53.336;83.690;2023-06-01T05:42:10;99900.75;;;21.85;36.74
74169;BME280;62523;53.336;83.690;2023-06-01T05:47:13;99895.00;;;22.17;34.58
74169;BME280;62523;53.336;83.690;2023-06-01T05:52:14;99892.22;;;22.74;34.37
74169;BME280;62523;53.336;83.690;2023-06-01T05:57:17;99882.19;;;22.48;35.23
74169;BME280;62523;53.336;83.690;2023-06-01T06:02:19;99882.31;;;22.75;35.33
74169;BME280;62523;53.336;83.690;2023-06-01T06:07:21;99881.53;;;22.64;35.21
74169;BME280;62523;53.336;83.690;2023-06-01T06:12:33;99875.16;;;23.11;34.39
74169;BME280;62523;53.336;83.690;2023-06-01T06:17:34;99859.31;;;22.44;35.82
74169;BME280;62523;53.336;83.690;2023-06-01T06:22:36;99848.66;;;22.98;34.55
74169;BME280;62523;53.336;83.690;2023-06-01T06:27:38;99848.78;;;22.61;33.48
74169;BME280;62523;53.336;83.690;2023-06-01T06:32:39;99853.22;;;23.16;32.93
74169;BME280;62523;53.336;83.690;2023-06-01T06:37:41;99846.59;;;23.10;32.36
74169;BME280;62523;53.336;83.690;2023-06-01T06:42:43;99834.38;;;23.34;31.89
74169;BME280;62523;53.336;83.690;2023-06-01T06:47:45;99828.97;;;22.44;34.12
74169;BME280;62523;53.336;83.690;2023-06-01T06:52:47;99820.16;;;23.67;32.78
74169;BME280;62523;53.336;83.690;2023-06-01T06:57:49;99820.38;;;23.04;32.33
74169;BME280;62523;53.336;83.690;2023-06-01T07:02:50;99819.59;;;23.56;31.54
74169;BME280;62523;53.336;83.690;2023-06-01T07:07:52;99817.56;;;23.76;32.53
74169;BME280;62523;53.336;83.690;2023-06-01T07:12:54;99809.44;;;23.23;33.33
74169;BME280;62523;53.336;83.690;2023-06-01T07:17:55;99805.28;;;23.55;30.47
74169;BME280;62523;53.336;83.690;2023-06-01T07:22:57;99809.81;;;23.28;31.11
74169;BME280;62523;53.336;83.690;2023-06-01T07:27:58;99795.53;;;23.10;30.21
74169;BME280;62523;53.336;83.690;2023-06-01T07:33:01;99784.16;;;23.86;29.40
74169;BME280;62523;53.336;83.690;2023-06-01T07:38:04;99786.63;;;23.54;29.33
74169;BME280;62523;53.336;83.690;2023-06-01T07:43:08;99779.28;;;24.32;28.18
74169;BME280;62523;53.336;83.690;2023-06-01T07:48:09;99785.47;;;24.17;28.80
74169;BME280;62523;53.336;83.690;2023-06-01T07:53:11;99775.44;;;23.92;28.94
74169;BME280;62523;53.336;83.690;2023-06-01T07:58:13;99777.81;;;24.46;26.71
74169;BME280;62523;53.336;83.690;2023-06-01T08:03:14;99769.69;;;24.30;25.41
74169;BME280;62523;53.336;83.690;2023-06-01T08:08:16;99759.09;;;24.37;25.91
74169;BME280;62523;53.336;83.690;2023-06-01T08:13:18;99756.00;;;24.66;20.67
74169;BME280;62523;53.336;83.690;2023-06-01T08:18:22;99761.88;;;24.61;20.33
74169;BME280;62523;53.336;83.690;2023-06-01T08:23:24;99752.28;;;24.83;18.79
74169;BME280;62523;53.336;83.690;2023-06-01T08:28:26;99743.19;;;24.60;18.27
74169;BME280;62523;53.336;83.690;2023-06-01T08:33:27;99742.00;;;24.62;21.00
74169;BME280;62523;53.336;83.690;2023-06-01T08:38:29;99734.13;;;24.93;22.21
74169;BME280;62523;53.336;83.690;2023-06-01T08:43:35;99719.44;;;24.96;23.30
74169;BME280;62523;53.336;83.690;2023-06-01T08:48:40;99726.03;;;24.93;23.50
74169;BME280;62523;53.336;83.690;2023-06-01T08:53:46;99722.16;;;25.04;23.64
74169;BME280;62523;53.336;83.690;2023-06-01T08:58:51;99724.69;;;24.89;23.43
74169;BME280;62523;53.336;83.690;2023-06-01T09:03:52;99732.75;;;24.98;23.78
74169;BME280;62523;53.336;83.690;2023-06-01T09:08:54;99725.25;;;24.26;24.76
74169;BME280;62523;53.336;83.690;2023-06-01T09:13:56;99722.25;;;24.29;25.01
74169;BME280;62523;53.336;83.690;2023-06-01T09:18:58;99715.56;;;24.49;24.97
74169;BME280;62523;53.336;83.690;2023-06-01T09:24:18;99710.66;;;25.35;24.25
74169;BME280;62523;53.336;83.690;2023-06-01T09:29:20;99711.34;;;25.21;24.69
74169;BME280;62523;53.336;83.690;2023-06-01T09:34:22;99708.34;;;25.71;24.81
74169;BME280;62523;53.336;83.690;2023-06-01T09:39:26;99710.03;;;24.59;23.84
74169;BME280;62523;53.336;83.690;2023-06-01T09:44:41;99710.16;;;25.15;23.13
74169;BME280;62523;53.336;83.690;2023-06-01T09:49:44;99709.81;;;25.34;22.89
74169;BME280;62523;53.336;83.690;2023-06-01T09:54:50;99704.94;;;25.05;23.47
74169;BME280;62523;53.336;83.690;2023-06-01T09:59:55;99703.34;;;25.60;22.71
74169;BME280;62523;53.336;83.690;2023-06-01T10:04:57;99692.50;;;25.04;23.07
74169;BME280;62523;53.336;83.690;2023-06-01T10:10:00;99689.59;;;25.30;22.81
74169;BME280;62523;53.336;83.690;2023-06-01T10:15:06;99681.50;;;25.39;22.48
74169;BME280;62523;53.336;83.690;2023-06-01T10:20:10;99687.88;;;25.46;22.45
74169;BME280;62523;53.336;83.690;2023-06-01T10:25:15;99683.22;;;25.15;22.79
74169;BME280;62523;53.336;83.690;2023-06-01T10:30:18;99674.78;;;25.10;22.85
74169;BME280;62523;53.336;83.690;2023-06-01T10:40:27;99668.13;;;24.57;24.07
74169;BME280;62523;53.336;83.690;2023-06-01T10:50:34;99666.44;;;24.80;23.54
74169;BME280;62523;53.336;83.690;2023-06-01T10:55:37;99670.22;;;25.27;22.61
74169;BME280;62523;53.336;83.690;2023-06-01T11:00:39;99671.38;;;25.41;22.57
74169;BME280;62523;53.336;83.690;2023-06-01T11:05:47;99666.91;;;24.92;22.88
74169;BME280;62523;53.336;83.690;2023-06-01T11:21:10;99663.34;;;25.24;22.34
74169;BME280;62523;53.336;83.690;2023-06-01T11:26:16;99655.53;;;25.38;22.14
74169;BME280;62523;53.336;83.690;2023-06-01T11:31:19;99654.41;;;25.07;23.08
74169;BME280;62523;53.336;83.690;2023-06-01T11:36:22;99651.31;;;25.74;22.24
74169;BME280;62523;53.336;83.690;2023-06-01T11:41:26;99648.91;;;25.57;22.28
74169;BME280;62523;53.336;83.690;2023-06-01T11:46:28;99644.97;;;25.67;22.13
74169;BME280;62523;53.336;83.690;2023-06-01T11:51:39;99652.25;;;25.59;22.28
74169;BME280;62523;53.336;83.690;2023-06-01T11:56:42;99654.03;;;25.74;22.64
74169;BME280;62523;53.336;83.690;2023-06-01T12:01:46;99645.31;;;26.04;21.48
74169;BME280;62523;53.336;83.690;2023-06-01T12:06:47;99648.47;;;26.53;21.26
74169;BME280;62523;53.336;83.690;2023-06-01T12:11:50;99651.91;;;26.01;21.40
74169;BME280;62523;53.336;83.690;2023-06-01T12:16:57;99642.56;;;26.35;21.21
74169;BME280;62523;53.336;83.690;2023-06-01T12:22:04;99640.03;;;26.33;21.20
74169;BME280;62523;53.336;83.690;2023-06-01T12:27:13;99633.19;;;26.69;20.60
74169;BME280;62523;53.336;83.690;2023-06-01T12:32:17;99641.28;;;27.22;20.07
74169;BME280;62523;53.336;83.690;2023-06-01T12:37:21;99645.06;;;26.83;20.79
74169;BME280;62523;53.336;83.690;2023-06-01T12:42:39;99648.97;;;25.80;21.87
74169;BME280;62523;53.336;83.690;2023-06-01T12:47:41;99647.22;;;27.02;21.10
74169;BME280;62523;53.336;83.690;2023-06-01T12:52:46;99642.16;;;26.99;21.74
74169;BME280;62523;53.336;83.690;2023-06-01T12:57:56;99649.28;;;27.60;20.30
74169;BME280;62523;53.336;83.690;2023-06-01T13:02:58;99647.00;;;26.28;21.74
74169;BME280;62523;53.336;83.690;2023-06-01T13:08:00;99649.72;;;27.04;21.16
74169;BME280;62523;53.336;83.690;2023-06-01T13:13:02;99647.53;;;26.46;21.09
74169;BME280;62523;53.336;83.690;2023-06-01T13:18:04;99646.75;;;26.38;21.55
74169;BME280;62523;53.336;83.690;2023-06-01T13:23:06;99651.19;;;26.30;21.17
74169;BME280;62523;53.336;83.690;2023-06-01T13:28:07;99655.41;;;25.23;23.58
74169;BME280;62523;53.336;83.690;2023-06-01T13:33:09;99658.50;;;24.62;25.05
74169;BME280;62523;53.336;83.690;2023-06-01T13:38:11;99661.00;;;24.47;25.62
74169;BME280;62523;53.336;83.690;2023-06-01T13:43:13;99664.31;;;24.08;26.63
74169;BME280;62523;53.336;83.690;2023-06-01T13:48:15;99659.09;;;24.07;27.07
74169;BME280;62523;53.336;83.690;2023-06-01T13:53:17;99658.97;;;23.74;27.82
74169;BME280;62523;53.336;83.690;2023-06-01T13:58:18;99667.25;;;23.38;28.20
74169;BME280;62523;53.336;83.690;2023-06-01T14:03:20;99660.56;;;23.16;28.45
74169;BME280;62523;53.336;83.690;2023-06-01T14:08:22;99667.56;;;22.83;29.22
74169;BME280;62523;53.336;83.690;2023-06-01T14:13:24;99661.03;;;22.41;29.75
74169;BME280;62523;53.336;83.690;2023-06-01T14:18:25;99668.00;;;22.06;30.25
74169;BME280;62523;53.336;83.690;2023-06-01T14:23:27;99671.66;;;21.87;30.26
74169;BME280;62523;53.336;83.690;2023-06-01T14:28:30;99672.66;;;21.86;30.14
74169;BME280;62523;53.336;83.690;2023-06-01T14:33:32;99669.59;;;21.81;30.23
74169;BME280;62523;53.336;83.690;2023-06-01T14:38:34;99670.78;;;21.41;31.21
74169;BME280;62523;53.336;83.690;2023-06-01T14:43:36;99671.84;;;21.11;31.44
74169;BME280;62523;53.336;83.690;2023-06-01T14:48:40;99676.47;;;21.19;31.91
74169;BME280;62523;53.336;83.690;2023-06-01T14:53:41;99671.81;;;21.21;31.82
74169;BME280;62523;53.336;83.690;2023-06-01T14:58:43;99676.97;;;20.85;32.71
74169;BME280;62523;53.336;83.690;2023-06-01T15:03:45;99676.56;;;20.70;32.99
74169;BME280;62523;53.336;83.690;2023-06-01T15:08:46;99685.28;;;20.62;33.56
74169;BME280;62523;53.336;83.690;2023-06-01T15:13:48;99681.59;;;20.54;33.49
74169;BME280;62523;53.336;83.690;2023-06-01T15:18:49;99682.59;;;20.43;33.94
74169;BME280;62523;53.336;83.690;2023-06-01T15:23:51;99680.50;;;20.46;33.95
74169;BME280;62523;53.336;83.690;2023-06-01T15:28:52;99680.63;;;20.35;34.13
74169;BME280;62523;53.336;83.690;2023-06-01T15:33:54;99683.69;;;20.01;34.76
74169;BME280;62523;53.336;83.690;2023-06-01T15:38:55;99683.88;;;20.29;34.58
74169;BME280;62523;53.336;83.690;2023-06-01T15:43:57;99682.44;;;20.05;34.78
74169;BME280;62523;53.336;83.690;2023-06-01T15:48:59;99685.91;;;19.87;35.64
74169;BME280;62523;53.336;83.690;2023-06-01T15:54:01;99686.78;;;20.07;34.87
74169;BME280;62523;53.336;83.690;2023-06-01T15:59:03;99688.81;;;19.74;36.15
74169;BME280;62523;53.336;83.690;2023-06-01T16:04:05;99689.66;;;19.74;36.30
74169;BME280;62523;53.336;83.690;2023-06-01T16:09:07;99698.66;;;20.33;35.36
74169;BME280;62523;53.336;83.690;2023-06-01T16:14:08;99693.03;;;20.46;35.20
74169;BME280;62523;53.336;83.690;2023-06-01T16:19:10;99689.75;;;20.03;35.77
74169;BME280;62523;53.336;83.690;2023-06-01T16:24:12;99697.13;;;19.80;36.23
74169;BME280;62523;53.336;83.690;2023-06-01T16:29:13;99695.31;;;19.50;36.39
74169;BME280;62523;53.336;83.690;2023-06-01T16:34:15;99693.41;;;19.62;36.25
74169;BME280;62523;53.336;83.690;2023-06-01T16:39:17;99687.88;;;19.84;35.82
74169;BME280;62523;53.336;83.690;2023-06-01T16:44:19;99691.81;;;19.50;36.61
74169;BME280;62523;53.336;83.690;2023-06-01T16:49:20;99690.13;;;19.79;36.36
74169;BME280;62523;53.336;83.690;2023-06-01T16:54:22;99687.50;;;19.28;37.27
74169;BME280;62523;53.336;83.690;2023-06-01T16:59:24;99682.28;;;19.26;37.13
74169;BME280;62523;53.336;83.690;2023-06-01T17:04:25;99680.44;;;19.57;36.47
74169;BME280;62523;53.336;83.690;2023-06-01T17:09:27;99679.38;;;19.70;37.23
74169;BME280;62523;53.336;83.690;2023-06-01T17:14:28;99683.66;;;19.51;37.38
74169;BME280;62523;53.336;83.690;2023-06-01T17:19:31;99687.06;;;19.53;37.77
74169;BME280;62523;53.336;83.690;2023-06-01T17:24:32;99681.25;;;19.48;37.51
74169;BME280;62523;53.336;83.690;2023-06-01T17:29:35;99692.06;;;19.47;37.33
74169;BME280;62523;53.336;83.690;2023-06-01T17:34:37;99682.25;;;19.47;36.91
74169;BME280;62523;53.336;83.690;2023-06-01T17:39:39;99684.44;;;19.42;36.91
74169;BME280;62523;53.336;83.690;2023-06-01T17:44:40;99687.72;;;19.15;37.80
74169;BME280;62523;53.336;83.690;2023-06-01T17:49:42;99689.41;;;18.95;38.12
74169;BME280;62523;53.336;83.690;2023-06-01T17:54:43;99696.66;;;18.51;39.39
74169;BME280;62523;53.336;83.690;2023-06-01T17:59:46;99693.53;;;18.02;43.72
74169;BME280;62523;53.336;83.690;2023-06-01T18:04:49;99698.06;;;17.45;46.56
74169;BME280;62523;53.336;83.690;2023-06-01T18:09:52;99694.53;;;17.56;45.88
74169;BME280;62523;53.336;83.690;2023-06-01T18:14:53;99690.06;;;17.79;43.35
74169;BME280;62523;53.336;83.690;2023-06-01T18:19:58;99693.56;;;17.91;42.79
74169;BME280;62523;53.336;83.690;2023-06-01T18:24:59;99690.78;;;17.58;43.91
74169;BME280;62523;53.336;83.690;2023-06-01T18:30:01;99691.47;;;16.93;48.39
74169;BME280;62523;53.336;83.690;2023-06-01T18:35:05;99690.81;;;16.54;51.99
74169;BME280;62523;53.336;83.690;2023-06-01T18:40:07;99694.63;;;15.90;55.20
74169;BME280;62523;53.336;83.690;2023-06-01T18:45:09;99689.16;;;16.05;55.44
74169;BME280;62523;53.336;83.690;2023-06-01T18:50:12;99687.91;;;16.22;55.34
74169;BME280;62523;53.336;83.690;2023-06-01T18:55:13;99684.28;;;15.74;57.70
74169;BME280;62523;53.336;83.690;2023-06-01T19:00:18;99692.69;;;15.17;60.75
74169;BME280;62523;53.336;83.690;2023-06-01T19:05:21;99699.19;;;15.13;62.51
74169;BME280;62523;53.336;83.690;2023-06-01T19:10:56;99698.53;;;14.97;63.11
74169;BME280;62523;53.336;83.690;2023-06-01T19:16:11;99692.47;;;15.20;62.30
74169;BME280;62523;53.336;83.690;2023-06-01T19:21:13;99699.44;;;14.70;64.31
74169;BME280;62523;53.336;83.690;2023-06-01T19:26:16;99698.69;;;14.41;66.26
74169;BME280;62523;53.336;83.690;2023-06-01T19:31:21;99689.06;;;14.40;66.86
74169;BME280;62523;53.336;83.690;2023-06-01T19:36:55;99697.16;;;14.24;68.02
74169;BME280;62523;53.336;83.690;2023-06-01T19:42:00;99706.44;;;14.31;68.32
74169;BME280;62523;53.336;83.690;2023-06-01T19:47:02;99705.16;;;14.37;66.79
74169;BME280;62523;53.336;83.690;2023-06-01T19:52:09;99700.19;;;14.45;66.66
74169;BME280;62523;53.336;83.690;2023-06-01T19:57:11;99700.28;;;14.30;68.09
74169;BME280;62523;53.336;83.690;2023-06-01T20:07:37;99695.69;;;14.20;68.92
74169;BME280;62523;53.336;83.690;2023-06-01T20:12:39;99703.81;;;14.17;69.27
74169;BME280;62523;53.336;83.690;2023-06-01T20:17:40;99701.66;;;13.67;71.87
74169;BME280;62523;53.336;83.690;2023-06-01T20:22:42;99696.94;;;13.58;73.41
74169;BME280;62523;53.336;83.690;2023-06-01T20:27:43;99697.75;;;13.87;72.53
74169;BME280;62523;53.336;83.690;2023-06-01T20:32:45;99694.22;;;14.01;70.40
74169;BME280;62523;53.336;83.690;2023-06-01T20:37:46;99703.50;;;13.38;74.42
74169;BME280;62523;53.336;83.690;2023-06-01T20:42:48;99703.16;;;13.00;76.62
74169;BME280;62523;53.336;83.690;2023-06-01T20:47:54;99704.72;;;13.32;75.42
74169;BME280;62523;53.336;83.690;2023-06-01T20:52:56;99706.03;;;13.68;70.90
74169;BME280;62523;53.336;83.690;2023-06-01T20:57:57;99705.66;;;13.46;72.78
74169;BME280;62523;53.336;83.690;2023-06-01T21:02:59;99704.28;;;13.24;73.60
74169;BME280;62523;53.336;83.690;2023-06-01T21:08:00;99713.47;;;13.76;71.06
74169;BME280;62523;53.336;83.690;2023-06-01T21:13:02;99710.81;;;13.04;75.10
74169;BME280;62523;53.336;83.690;2023-06-01T21:18:03;99712.88;;;12.69;78.14
74169;BME280;62523;53.336;83.690;2023-06-01T21:23:05;99718.56;;;12.47;79.26
74169;BME280;62523;53.336;83.690;2023-06-01T21:28:07;99726.97;;;12.69;79.28
74169;BME280;62523;53.336;83.690;2023-06-01T21:33:08;99716.22;;;12.73;78.29
74169;BME280;62523;53.336;83.690;2023-06-01T21:38:11;99720.56;;;12.43;80.76
74169;BME280;62523;53.336;83.690;2023-06-01T21:43:13;99727.00;;;12.54;81.12
74169;BME280;62523;53.336;83.690;2023-06-01T21:48:15;99720.44;;;12.45;82.17
74169;BME280;62523;53.336;83.690;2023-06-01T21:53:19;99720.78;;;12.85;78.78
74169;BME280;62523;53.336;83.690;2023-06-01T21:58:23;99729.41;;;12.42;81.41
74169;BME280;62523;53.336;83.690;2023-06-01T22:03:25;99730.72;;;12.19;84.03
74169;BME280;62523;53.336;83.690;2023-06-01T22:08:28;99728.50;;;12.43;84.31
74169;BME280;62523;53.336;83.690;2023-06-01T22:13:29;99733.13;;;12.24;85.35
74169;BME280;62523;53.336;83.690;2023-06-01T22:18:31;99743.41;;;12.13;87.14
74169;BME280;62523;53.336;83.690;2023-06-01T22:23:33;99745.03;;;11.99;88.28
74169;BME280;62523;53.336;83.690;2023-06-01T22:28:35;99748.19;;;12.22;86.26
74169;BME280;62523;53.336;83.690;2023-06-01T22:33:36;99756.44;;;12.32;84.90
74169;BME280;62523;53.336;83.690;2023-06-01T22:38:38;99763.03;;;12.70;82.84
74169;BME280;62523;53.336;83.690;2023-06-01T22:43:44;99770.66;;;12.61;83.32
74169;BME280;62523;53.336;83.690;2023-06-01T22:48:46;99772.41;;;12.76;83.14
74169;BME280;62523;53.336;83.690;2023-06-01T22:53:50;99773.88;;;12.66;83.23
74169;BME280;62523;53.336;83.690;2023-06-01T22:58:51;99774.56;;;12.84;83.39
74169;BME280;62523;53.336;83.690;2023-06-01T23:03:53;99787.41;;;12.76;83.90
74169;BME280;62523;53.336;83.690;2023-06-01T23:08:55;99785.69;;;12.75;83.41
74169;BME280;62523;53.336;83.690;2023-06-01T23:13:59;99793.09;;;12.84;82.34
74169;BME280;62523;53.336;83.690;2023-06-01T23:19:01;99786.69;;;14.60;73.88
74169;BME280;62523;53.336;83.690;2023-06-01T23:24:03;99795.59;;;16.75;61.04
74169;BME280;62523;53.336;83.690;2023-06-01T23:29:07;99788.84;;;16.95;58.26
74169;BME280;62523;53.336;83.690;2023-06-01T23:34:09;99800.72;;;17.60;56.04
74169;BME280;62523;53.336;83.690;2023-06-01T23:39:11;99789.28;;;17.25;56.98
74169;BME280;62523;53.336;83.690;2023-06-01T23:44:13;99801.00;;;17.91;54.40
74169;BME280;62523;53.336;83.690;2023-06-01T23:49:16;99807.91;;;18.05;53.98
74169;BME280;62523;53.336;83.690;2023-06-01T23:54:18;99800.59;;;18.73;52.41
74169;BME280;62523;53.336;83.690;2023-06-01T23:59:19;99805.50;;;19.00;52.26
